Time;durP1;ratioP1;P1;durP2;ratioP2;P2;SDS_P1;SDS_P2;PMS_P1;PMS_P2;Temp;Humidity;BMP_temperature;BMP_pressure;BME280_temperature;BME280_humidity;BME280_pressure;Samples;Min_cycle;Max_cycle;Signal;HPM_P1;HPM_P2
2022/12/06 00:00:44;;;;;;;12.67;8.53;;;;;;;;;;5002181;28;20898;-44
2022/12/06 00:03:10;;;;;;;16.10;9.80;;;;;;;;;;5001965;28;20783;-44
2022/12/06 00:05:36;;;;;;;14.63;10.10;;;;;;;;;;5001696;28;20418;-45
2022/12/06 00:08:02;;;;;;;13.47;8.70;;;;;;;;;;5000092;28;20428;-45
2022/12/06 00:10:28;;;;;;;11.40;8.27;;;;;;;;;;5005331;28;20569;-44
2022/12/06 00:12:54;;;;;;;17.37;10.30;;;;;;;;;;4999819;28;20412;-44
2022/12/06 00:15:20;;;;;;;17.80;10.43;;;;;;;;;;5000478;28;20417;-44
2022/12/06 00:17:46;;;;;;;12.80;10.03;;;;;;;;;;5006299;28;20510;-44
2022/12/06 00:20:12;;;;;;;18.80;10.90;;;;;;;;;;5000419;28;20438;-45
2022/12/06 00:22:43;;;;;;;15.33;10.60;;;;;;;;;;5006909;28;20418;-44
2022/12/06 00:25:08;;;;;;;19.13;10.13;;;;;;;;;;5000241;28;20431;-44
2022/12/06 00:27:34;;;;;;;23.27;9.93;;;;;;;;;;5004063;28;20195;-44
2022/12/06 00:30:00;;;;;;;20.17;10.23;;;;;;;;;;4997549;28;20968;-44
2022/12/06 00:32:26;;;;;;;20.00;11.20;;;;;;;;;;4998186;28;20918;-44
2022/12/06 00:34:52;;;;;;;17.20;12.33;;;;;;;;;;5002356;28;20775;-44
2022/12/06 00:37:18;;;;;;;17.13;11.20;;;;;;;;;;5003258;28;20423;-44
2022/12/06 00:39:44;;;;;;;22.27;12.57;;;;;;;;;;5001492;28;20416;-45
2022/12/06 00:42:10;;;;;;;24.67;12.33;;;;;;;;;;5007612;28;20427;-44
2022/12/06 00:44:36;;;;;;;17.53;11.40;;;;;;;;;;5003302;28;20411;-44
2022/12/06 00:47:02;;;;;;;24.70;11.60;;;;;;;;;;4993220;28;20475;-45
2022/12/06 00:49:28;;;;;;;27.60;13.97;;;;;;;;;;5007029;28;20463;-44
2022/12/06 00:51:55;;;;;;;26.57;14.80;;;;;;;;;;4999261;28;20481;-44
2022/12/06 00:54:21;;;;;;;28.60;13.27;;;;;;;;;;5002282;28;20522;-45
2022/12/06 00:56:47;;;;;;;24.67;12.67;;;;;;;;;;4999915;28;20271;-44
2022/12/06 00:59:13;;;;;;;25.90;13.57;;;;;;;;;;4999974;28;20413;-44
2022/12/06 01:01:40;;;;;;;37.73;12.93;;;;;;;;;;5001481;28;20443;-43
2022/12/06 01:04:08;;;;;;;23.63;11.50;;;;;;;;;;4995910;28;20456;-44
2022/12/06 01:06:34;;;;;;;28.83;12.10;;;;;;;;;;5002975;28;20295;-44
2022/12/06 01:09:02;;;;;;;24.20;11.85;;;;;;;;;;4999845;28;20207;-45
2022/12/06 01:11:28;;;;;;;25.30;12.65;;;;;;;;;;4999503;28;20183;-44
2022/12/06 01:13:55;;;;;;;24.70;12.63;;;;;;;;;;5001032;28;20591;-44
2022/12/06 01:16:22;;;;;;;35.50;14.30;;;;;;;;;;4999559;28;20169;-44
2022/12/06 01:18:51;;;;;;;34.15;13.55;;;;;;;;;;4999851;28;20231;-43
2022/12/06 01:21:18;;;;;;;31.73;12.63;;;;;;;;;;4999889;28;20211;-44
2022/12/06 01:23:44;;;;;;;58.05;14.48;;;;;;;;;;5001179;28;20189;-44
2022/12/06 01:26:20;;;;;;;36.55;13.73;;;;;;;;;;4999594;28;20176;-44
2022/12/06 01:28:46;;;;;;;34.08;13.85;;;;;;;;;;4996612;28;20207;-44
2022/12/06 01:31:13;;;;;;;25.40;14.35;;;;;;;;;;4998500;28;20256;-44
2022/12/06 01:33:39;;;;;;;30.70;14.05;;;;;;;;;;5001161;28;20184;-44
2022/12/06 01:36:05;;;;;;;37.53;13.30;;;;;;;;;;5002685;28;20173;-44
2022/12/06 01:38:31;;;;;;;25.60;13.70;;;;;;;;;;5002643;28;20411;-45
2022/12/06 01:40:57;;;;;;;39.23;13.17;;;;;;;;;;5000984;28;20561;-44
2022/12/06 01:43:29;;;;;;;37.67;13.33;;;;;;;;;;5003495;28;20411;-44
2022/12/06 01:45:56;;;;;;;31.48;13.43;;;;;;;;;;4998840;28;20541;-44
2022/12/06 01:48:23;;;;;;;27.80;14.50;;;;;;;;;;5006262;28;20216;-44
2022/12/06 01:50:50;;;;;;;20.35;13.43;;;;;;;;;;5003515;28;20323;-45
2022/12/06 01:53:18;;;;;;;24.08;12.85;;;;;;;;;;5004691;28;20176;-44
2022/12/06 01:55:44;;;;;;;19.27;11.25;;;;;;;;;;5001839;28;20169;-44
2022/12/06 01:58:12;;;;;;;19.35;12.02;;;;;;;;;;5003926;28;20270;-44
2022/12/06 02:00:38;;;;;;;21.52;13.00;;;;;;;;;;5005578;28;20182;-44
2022/12/06 02:03:05;;;;;;;27.63;13.33;;;;;;;;;;5002017;28;20180;-44
2022/12/06 02:05:31;;;;;;;24.77;12.50;;;;;;;;;;5005231;28;20465;-45
2022/12/06 02:07:57;;;;;;;20.15;12.45;;;;;;;;;;5002135;28;20207;-44
2022/12/06 02:10:23;;;;;;;21.73;12.50;;;;;;;;;;5001887;28;20686;-45
2022/12/06 02:12:51;;;;;;;19.70;12.00;;;;;;;;;;5003444;28;20223;-44
2022/12/06 02:15:18;;;;;;;24.50;11.68;;;;;;;;;;5002529;28;20412;-44
2022/12/06 02:17:47;;;;;;;22.95;12.80;;;;;;;;;;5003202;28;20646;-44
2022/12/06 02:20:19;;;;;;;21.67;12.25;;;;;;;;;;5006346;28;20215;-44
2022/12/06 02:22:54;;;;;;;25.10;13.18;;;;;;;;;;5004922;28;20527;-44
2022/12/06 02:25:33;;;;;;;31.13;13.00;;;;;;;;;;5006010;28;20610;-44
2022/12/06 02:28:02;;;;;;;20.45;12.43;;;;;;;;;;4998298;28;20695;-44
2022/12/06 02:30:50;;;;;;;35.97;12.20;;;;;;;;;;5005241;28;20253;-44
2022/12/06 02:33:30;;;;;;;20.23;13.50;;;;;;;;;;4999201;28;20211;-44
2022/12/06 02:36:06;;;;;;;27.10;11.23;;;;;;;;;;5002273;28;20172;-43
2022/12/06 02:38:39;;;;;;;20.40;11.98;;;;;;;;;;5000627;28;20540;-44
2022/12/06 02:41:09;;;;;;;23.92;11.20;;;;;;;;;;4994634;28;20555;-44
2022/12/06 02:43:40;;;;;;;31.63;13.70;;;;;;;;;;5001377;28;20756;-45
2022/12/06 02:46:07;;;;;;;30.08;14.40;;;;;;;;;;5005080;28;20164;-43
2022/12/06 02:48:34;;;;;;;23.38;12.88;;;;;;;;;;5009724;28;20204;-42
2022/12/06 02:51:06;;;;;;;41.13;12.55;;;;;;;;;;5002283;28;20173;-44
2022/12/06 02:53:34;;;;;;;26.65;12.23;;;;;;;;;;5001426;28;20574;-42
2022/12/06 02:56:00;;;;;;;25.20;12.38;;;;;;;;;;5005143;28;20591;-42
2022/12/06 02:58:26;;;;;;;24.98;12.68;;;;;;;;;;5005077;28;20196;-43
2022/12/06 03:01:01;;;;;;;48.13;11.80;;;;;;;;;;5004863;28;20172;-43
2022/12/06 03:03:39;;;;;;;17.67;11.20;;;;;;;;;;5007967;28;20649;-43
2022/12/06 03:06:28;;;;;;;22.17;11.30;;;;;;;;;;5000201;28;20177;-43
2022/12/06 03:09:03;;;;;;;23.67;12.93;;;;;;;;;;5002042;28;20213;-42
2022/12/06 03:11:35;;;;;;;23.17;12.68;;;;;;;;;;5001479;28;20180;-43
2022/12/06 03:14:05;;;;;;;25.13;11.73;;;;;;;;;;5006728;28;20192;-44
2022/12/06 03:16:38;;;;;;;46.85;12.98;;;;;;;;;;5004689;28;20227;-42
2022/12/06 03:19:07;;;;;;;43.83;12.55;;;;;;;;;;4989635;28;20278;-43
2022/12/06 03:21:42;;;;;;;21.50;12.25;;;;;;;;;;4997575;28;20537;-43
2022/12/06 03:24:11;;;;;;;70.28;12.35;;;;;;;;;;4990619;28;20265;-45
2022/12/06 03:26:39;;;;;;;24.40;13.73;;;;;;;;;;4993664;28;20297;-44
2022/12/06 03:29:06;;;;;;;25.67;12.88;;;;;;;;;;4996994;28;20201;-43
2022/12/06 03:31:35;;;;;;;23.52;11.70;;;;;;;;;;4995063;28;20177;-45
2022/12/06 03:34:03;;;;;;;59.65;13.65;;;;;;;;;;4994310;28;20248;-43
2022/12/06 03:36:30;;;;;;;24.67;13.93;;;;;;;;;;4992248;28;20198;-45
2022/12/06 03:39:06;;;;;;;30.40;12.50;;;;;;;;;;4992617;28;20180;-42
2022/12/06 03:41:38;;;;;;;28.02;12.05;;;;;;;;;;5005483;28;20256;-42
2022/12/06 03:44:04;;;;;;;21.30;11.90;;;;;;;;;;4992440;28;20177;-42
2022/12/06 03:46:33;;;;;;;40.10;12.97;;;;;;;;;;5003460;28;20307;-42
2022/12/06 03:49:05;;;;;;;30.65;12.45;;;;;;;;;;4994869;28;20978;-43
2022/12/06 03:51:33;;;;;;;26.35;13.23;;;;;;;;;;4999670;28;20256;-42
2022/12/06 03:54:00;;;;;;;38.92;12.15;;;;;;;;;;4998645;28;20603;-42
2022/12/06 03:56:26;;;;;;;23.20;12.45;;;;;;;;;;4998214;28;20208;-42
2022/12/06 03:58:52;;;;;;;28.88;12.75;;;;;;;;;;4995155;28;20701;-43
2022/12/06 04:01:18;;;;;;;21.27;12.57;;;;;;;;;;4993730;28;20185;-42
2022/12/06 04:03:44;;;;;;;23.87;13.80;;;;;;;;;;5001597;28;20444;-42
2022/12/06 04:06:10;;;;;;;30.30;12.13;;;;;;;;;;5003516;28;20423;-43
2022/12/06 04:08:37;;;;;;;24.23;11.50;;;;;;;;;;4998294;28;20408;-43
2022/12/06 04:11:03;;;;;;;25.00;12.07;;;;;;;;;;5002202;28;20538;-42
2022/12/06 04:13:29;;;;;;;23.48;11.60;;;;;;;;;;5000422;28;20177;-42
2022/12/06 04:15:56;;;;;;;38.67;12.82;;;;;;;;;;5002718;28;20670;-43
2022/12/06 04:18:22;;;;;;;29.77;12.77;;;;;;;;;;4996070;28;20192;-44
2022/12/06 04:23:37;;;;;;;23.77;12.43;;;;;;;;;;5001633;28;20188;-43
2022/12/06 04:26:04;;;;;;;34.45;13.25;;;;;;;;;;4989789;28;20208;-44
2022/12/06 04:39:30;;;;;;;47.42;11.40;;;;;;;;;;5000111;28;20235;-42
2022/12/06 04:44:40;;;;;;;38.10;13.10;;;;;;;;;;5004672;28;20958;-41
2022/12/06 04:47:07;;;;;;;21.15;12.07;;;;;;;;;;4999832;28;20678;-41
2022/12/06 04:49:35;;;;;;;23.55;11.95;;;;;;;;;;5004634;28;20203;-40
2022/12/06 04:52:01;;;;;;;35.80;12.55;;;;;;;;;;4994110;28;20565;-41
2022/12/06 04:54:29;;;;;;;26.40;11.93;;;;;;;;;;5003067;28;20677;-40
2022/12/06 04:56:55;;;;;;;19.27;12.40;;;;;;;;;;4997423;28;20568;-43
2022/12/06 04:59:21;;;;;;;28.75;12.68;;;;;;;;;;4998160;28;20176;-42
2022/12/06 05:01:47;;;;;;;52.80;12.60;;;;;;;;;;5001443;28;20215;-40
2022/12/06 05:04:13;;;;;;;27.70;11.97;;;;;;;;;;5003207;28;20422;-40
2022/12/06 05:06:39;;;;;;;23.63;12.18;;;;;;;;;;5000479;28;20843;-40
2022/12/06 05:09:05;;;;;;;47.58;12.98;;;;;;;;;;5005297;28;20200;-40
2022/12/06 05:11:31;;;;;;;28.58;11.70;;;;;;;;;;4997608;28;20227;-41
2022/12/06 05:13:58;;;;;;;27.93;10.63;;;;;;;;;;5002977;28;20589;-41
2022/12/06 05:16:24;;;;;;;41.78;13.07;;;;;;;;;;5004657;28;20504;-40
2022/12/06 05:18:50;;;;;;;26.75;11.25;;;;;;;;;;5004703;28;20184;-40
2022/12/06 05:21:17;;;;;;;25.53;11.47;;;;;;;;;;5005714;28;20311;-41
2022/12/06 05:23:43;;;;;;;90.18;13.32;;;;;;;;;;5004635;28;20404;-41
2022/12/06 05:26:14;;;;;;;21.97;11.53;;;;;;;;;;5004619;28;20223;-41
2022/12/06 05:28:41;;;;;;;30.48;12.38;;;;;;;;;;5003842;28;20418;-41
2022/12/06 05:31:08;;;;;;;31.70;12.20;;;;;;;;;;5010066;28;20183;-42
2022/12/06 05:33:34;;;;;;;32.05;13.25;;;;;;;;;;5008255;28;20559;-42
2022/12/06 05:36:05;;;;;;;23.85;12.10;;;;;;;;;;5006477;28;20256;-40
2022/12/06 05:38:32;;;;;;;34.88;12.85;;;;;;;;;;5002060;28;20200;-40
2022/12/06 05:40:58;;;;;;;27.48;12.15;;;;;;;;;;5004317;28;20169;-42
2022/12/06 05:43:24;;;;;;;33.47;12.77;;;;;;;;;;5003187;28;20177;-40
2022/12/06 05:45:52;;;;;;;29.20;12.13;;;;;;;;;;5005026;28;20435;-40
2022/12/06 05:48:18;;;;;;;76.53;13.88;;;;;;;;;;5006219;28;20432;-41
2022/12/06 05:50:47;;;;;;;30.25;12.32;;;;;;;;;;5003181;28;20294;-40
2022/12/06 05:53:13;;;;;;;32.17;12.40;;;;;;;;;;5002748;28;20175;-40
2022/12/06 05:55:40;;;;;;;60.47;13.25;;;;;;;;;;4999372;28;20180;-41
2022/12/06 05:58:07;;;;;;;29.25;13.05;;;;;;;;;;5006132;28;20200;-41
2022/12/06 06:00:33;;;;;;;26.85;11.82;;;;;;;;;;5004417;28;20660;-43
2022/12/06 06:02:59;;;;;;;22.20;12.23;;;;;;;;;;5005966;28;20717;-40
2022/12/06 06:05:25;;;;;;;109.63;14.20;;;;;;;;;;5003138;28;20419;-40
2022/12/06 06:07:51;;;;;;;83.13;13.53;;;;;;;;;;5003797;28;20443;-40
2022/12/06 06:10:17;;;;;;;24.73;13.00;;;;;;;;;;5001174;28;20578;-40
2022/12/06 06:12:44;;;;;;;26.10;13.90;;;;;;;;;;5005034;28;20416;-41
2022/12/06 06:15:10;;;;;;;29.08;12.40;;;;;;;;;;5000366;28;20187;-40
2022/12/06 06:17:36;;;;;;;29.77;12.60;;;;;;;;;;5001951;28;20197;-41
2022/12/06 06:20:06;;;;;;;50.37;13.30;;;;;;;;;;5005038;28;20180;-40
2022/12/06 06:22:33;;;;;;;34.40;13.55;;;;;;;;;;5002615;28;20409;-41
2022/12/06 06:24:58;;;;;;;52.65;13.57;;;;;;;;;;5000380;28;20180;-41
2022/12/06 06:27:24;;;;;;;50.17;15.13;;;;;;;;;;5005459;28;20203;-40
2022/12/06 06:29:50;;;;;;;20.87;13.47;;;;;;;;;;5004319;28;20455;-40
2022/12/06 06:32:17;;;;;;;39.47;14.05;;;;;;;;;;5005647;28;20426;-40
2022/12/06 06:34:44;;;;;;;32.22;13.60;;;;;;;;;;4999821;28;20227;-41
2022/12/06 06:37:10;;;;;;;117.80;15.02;;;;;;;;;;5002090;28;20211;-40
2022/12/06 06:39:36;;;;;;;38.35;13.90;;;;;;;;;;5002136;28;20191;-41
2022/12/06 06:42:02;;;;;;;61.83;16.20;;;;;;;;;;5005703;28;20168;-40
2022/12/06 06:44:27;;;;;;;26.50;13.40;;;;;;;;;;5004237;28;20424;-41
2022/12/06 06:46:53;;;;;;;74.83;14.90;;;;;;;;;;5006216;28;20508;-41
2022/12/06 06:49:20;;;;;;;35.10;13.77;;;;;;;;;;5000057;28;20462;-41
2022/12/06 06:51:46;;;;;;;31.92;12.38;;;;;;;;;;5003363;28;20417;-40
2022/12/06 06:54:14;;;;;;;71.00;14.47;;;;;;;;;;5003663;28;20195;-40
2022/12/06 06:56:41;;;;;;;27.90;13.10;;;;;;;;;;5002142;28;20416;-41
2022/12/06 06:59:07;;;;;;;25.73;12.65;;;;;;;;;;5004596;28;20179;-42
2022/12/06 07:01:33;;;;;;;25.13;13.10;;;;;;;;;;5001907;28;20268;-42
2022/12/06 07:03:59;;;;;;;44.53;14.27;;;;;;;;;;5004953;28;20260;-41
2022/12/06 07:06:25;;;;;;;42.20;14.50;;;;;;;;;;5001211;28;20489;-40
2022/12/06 07:08:51;;;;;;;44.47;14.95;;;;;;;;;;5002818;28;20979;-40
2022/12/06 07:11:17;;;;;;;25.23;14.20;;;;;;;;;;5001570;28;20187;-40
2022/12/06 07:13:43;;;;;;;31.53;13.83;;;;;;;;;;5002943;28;20416;-41
2022/12/06 07:16:13;;;;;;;52.95;15.50;;;;;;;;;;5004685;28;20748;-41
2022/12/06 07:18:39;;;;;;;30.10;14.00;;;;;;;;;;5001838;28;20169;-41
2022/12/06 07:21:06;;;;;;;34.83;14.05;;;;;;;;;;5002256;28;20177;-41
2022/12/06 07:23:34;;;;;;;79.72;15.75;;;;;;;;;;5000613;28;20264;-44
2022/12/06 07:26:00;;;;;;;31.23;13.77;;;;;;;;;;5002135;28;20173;-42
2022/12/06 07:28:26;;;;;;;71.72;16.73;;;;;;;;;;5005480;28;20203;-43
2022/12/06 07:30:52;;;;;;;47.60;14.60;;;;;;;;;;5001938;28;20217;-43
2022/12/06 07:33:18;;;;;;;39.57;14.20;;;;;;;;;;5001453;28;20416;-43
2022/12/06 07:35:48;;;;;;;73.07;15.03;;;;;;;;;;5000948;28;20408;-43
2022/12/06 07:38:14;;;;;;;25.70;13.30;;;;;;;;;;5006929;28;20457;-44
2022/12/06 07:40:40;;;;;;;38.97;13.60;;;;;;;;;;5010066;28;20188;-43
2022/12/06 07:45:53;;;;;;;55.22;16.02;;;;;;;;;;5005661;28;20342;-44
2022/12/06 07:48:19;;;;;;;38.77;14.97;;;;;;;;;;4996329;28;20725;-44
2022/12/06 07:50:46;;;;;;;38.03;14.23;;;;;;;;;;5005821;28;20487;-43
2022/12/06 07:53:12;;;;;;;28.50;14.90;;;;;;;;;;5005955;28;20255;-44
2022/12/06 07:55:38;;;;;;;32.80;14.05;;;;;;;;;;5003445;28;20185;-45
2022/12/06 07:58:04;;;;;;;37.97;14.95;;;;;;;;;;5004177;28;20207;-44
2022/12/06 08:00:30;;;;;;;25.27;13.63;;;;;;;;;;4985121;28;20647;-44
2022/12/06 08:02:56;;;;;;;29.00;14.93;;;;;;;;;;4991713;28;20407;-44
2022/12/06 08:05:22;;;;;;;24.57;12.40;;;;;;;;;;5010790;28;20267;-43
2022/12/06 08:07:48;;;;;;;26.23;15.30;;;;;;;;;;5003629;28;20431;-44
2022/12/06 08:10:14;;;;;;;26.67;13.07;;;;;;;;;;5004615;28;20537;-46
2022/12/06 08:12:40;;;;;;;28.73;15.07;;;;;;;;;;5001168;28;20424;-46
2022/12/06 08:15:11;;;;;;;26.20;13.57;;;;;;;;;;5003179;28;20176;-45
2022/12/06 08:17:37;;;;;;;30.23;15.82;;;;;;;;;;5010253;28;20423;-44
2022/12/06 08:20:04;;;;;;;24.90;13.40;;;;;;;;;;5002663;28;20487;-47
2022/12/06 08:22:30;;;;;;;31.13;13.98;;;;;;;;;;5002163;28;20235;-44
2022/12/06 08:24:56;;;;;;;24.73;14.63;;;;;;;;;;5007933;28;20189;-46
2022/12/06 08:27:22;;;;;;;83.50;15.80;;;;;;;;;;5003407;28;20427;-45
2022/12/06 08:29:48;;;;;;;41.83;16.40;;;;;;;;;;4999487;28;20459;-45
2022/12/06 08:32:14;;;;;;;30.87;14.00;;;;;;;;;;5002011;28;20408;-44
2022/12/06 08:34:41;;;;;;;88.25;17.23;;;;;;;;;;5002960;28;20482;-46
2022/12/06 08:37:07;;;;;;;28.48;15.60;;;;;;;;;;5001657;28;20595;-46
2022/12/06 08:39:33;;;;;;;32.77;14.27;;;;;;;;;;5002525;28;20181;-45
2022/12/06 08:42:02;;;;;;;37.33;15.55;;;;;;;;;;5003923;28;20413;-42
2022/12/06 08:44:30;;;;;;;43.15;14.35;;;;;;;;;;5000731;28;20180;-43
2022/12/06 08:46:57;;;;;;;41.67;15.57;;;;;;;;;;4990079;28;20265;-42
2022/12/06 08:49:24;;;;;;;57.72;16.65;;;;;;;;;;4996720;28;20709;-43
2022/12/06 08:51:50;;;;;;;41.30;16.20;;;;;;;;;;4993981;28;20176;-42
2022/12/06 08:54:17;;;;;;;37.15;17.15;;;;;;;;;;5003062;28;20164;-41
2022/12/06 08:56:43;;;;;;;30.17;15.95;;;;;;;;;;5003592;28;20192;-42
2022/12/06 08:59:09;;;;;;;36.60;15.57;;;;;;;;;;5003151;28;20630;-42
2022/12/06 09:01:35;;;;;;;63.28;16.60;;;;;;;;;;5000866;28;20411;-41
2022/12/06 09:04:02;;;;;;;31.48;17.80;;;;;;;;;;4996505;28;20263;-42
2022/12/06 09:06:28;;;;;;;39.13;16.77;;;;;;;;;;5004359;28;20196;-42
2022/12/06 09:08:55;;;;;;;33.22;16.58;;;;;;;;;;5002598;28;20204;-43
2022/12/06 09:11:22;;;;;;;55.20;18.10;;;;;;;;;;5002046;28;20550;-42
2022/12/06 09:13:48;;;;;;;89.30;17.67;;;;;;;;;;5003632;28;20173;-42
2022/12/06 09:16:15;;;;;;;34.55;15.00;;;;;;;;;;5001534;28;20169;-41
2022/12/06 09:18:42;;;;;;;68.65;16.75;;;;;;;;;;5004523;28;20648;-42
2022/12/06 09:21:15;;;;;;;30.98;15.98;;;;;;;;;;5006423;28;20179;-41
2022/12/06 09:23:41;;;;;;;31.40;15.90;;;;;;;;;;5004634;28;20184;-44
2022/12/06 09:26:07;;;;;;;45.23;15.67;;;;;;;;;;5000314;28;20271;-44
2022/12/06 09:28:34;;;;;;;30.75;15.90;;;;;;;;;;4999017;28;20898;-45
2022/12/06 09:31:01;;;;;;;52.25;16.63;;;;;;;;;;4994262;28;20208;-42
2022/12/06 09:33:27;;;;;;;52.55;14.73;;;;;;;;;;5004015;28;20385;-41
2022/12/06 09:35:53;;;;;;;27.00;14.13;;;;;;;;;;5005464;28;20650;-41
2022/12/06 09:38:21;;;;;;;22.37;14.10;;;;;;;;;;5003849;28;20964;-42
2022/12/06 09:40:47;;;;;;;32.85;14.85;;;;;;;;;;5002260;28;20408;-42
2022/12/06 09:43:31;;;;;;;34.53;15.30;;;;;;;;;;5006305;28;20191;-43
2022/12/06 09:46:12;;;;;;;24.02;14.45;;;;;;;;;;5002715;28;20964;-42
2022/12/06 09:48:58;;;;;;;45.38;15.75;;;;;;;;;;5005327;28;20737;-42
2022/12/06 09:51:29;;;;;;;39.88;15.05;;;;;;;;;;5004891;28;20262;-43
2022/12/06 09:53:55;;;;;;;35.22;13.80;;;;;;;;;;4999942;28;20194;-42
2022/12/06 09:56:25;;;;;;;31.83;14.20;;;;;;;;;;4999639;28;20181;-44
2022/12/06 09:59:12;;;;;;;30.15;14.02;;;;;;;;;;5004932;28;20448;-41
2022/12/06 10:01:53;;;;;;;24.73;13.63;;;;;;;;;;5002392;28;20185;-42
2022/12/06 10:04:20;;;;;;;32.75;14.52;;;;;;;;;;5003664;28;20164;-42
2022/12/06 10:06:45;;;;;;;51.67;14.50;;;;;;;;;;5007717;28;20192;-41
2022/12/06 10:09:18;;;;;;;24.93;14.77;;;;;;;;;;5002214;28;20208;-42
2022/12/06 10:11:53;;;;;;;26.50;14.50;;;;;;;;;;4997860;28;20495;-42
2022/12/06 10:14:25;;;;;;;43.63;13.43;;;;;;;;;;5006868;28;20172;-43
2022/12/06 10:17:11;;;;;;;27.48;13.43;;;;;;;;;;5007111;28;20204;-43
2022/12/06 10:19:56;;;;;;;27.83;14.25;;;;;;;;;;5005797;28;20196;-42
2022/12/06 10:22:40;;;;;;;22.40;12.40;;;;;;;;;;5002412;28;20196;-42
2022/12/06 10:25:23;;;;;;;24.30;13.52;;;;;;;;;;4991459;28;20204;-42
2022/12/06 10:28:08;;;;;;;28.65;13.13;;;;;;;;;;5008844;28;20251;-41
2022/12/06 10:30:37;;;;;;;24.55;13.10;;;;;;;;;;5006717;28;20303;-42
2022/12/06 10:33:21;;;;;;;55.15;12.18;;;;;;;;;;4993196;28;20179;-42
2022/12/06 10:35:53;;;;;;;27.65;12.70;;;;;;;;;;4999044;28;20705;-42
2022/12/06 10:38:28;;;;;;;22.65;12.65;;;;;;;;;;4999713;28;20685;-41
2022/12/06 10:40:57;;;;;;;18.30;12.07;;;;;;;;;;5004157;28;20216;-42
2022/12/06 10:43:41;;;;;;;19.77;12.30;;;;;;;;;;5004212;28;20411;-42
2022/12/06 10:49:13;;;;;;;25.10;11.80;;;;;;;;;;4994577;28;20204;-41
2022/12/06 10:51:45;;;;;;;28.33;11.05;;;;;;;;;;5002065;28;20223;-41
2022/12/06 10:54:27;;;;;;;15.65;10.63;;;;;;;;;;4994813;28;20244;-41
2022/12/06 10:56:54;;;;;;;14.80;10.35;;;;;;;;;;5002604;28;20207;-41
2022/12/06 10:59:27;;;;;;;17.20;10.73;;;;;;;;;;5004106;28;20562;-41
2022/12/06 11:01:56;;;;;;;14.55;9.27;;;;;;;;;;4999959;28;20235;-42
2022/12/06 11:04:24;;;;;;;21.58;10.00;;;;;;;;;;5004839;28;20354;-41
2022/12/06 11:06:53;;;;;;;13.70;9.63;;;;;;;;;;4996537;28;20272;-42
2022/12/06 11:09:22;;;;;;;17.80;10.40;;;;;;;;;;5004228;28;20755;-43
2022/12/06 11:11:49;;;;;;;13.57;9.10;;;;;;;;;;4997670;28;20509;-42
2022/12/06 11:14:34;;;;;;;18.65;10.43;;;;;;;;;;5002536;28;20248;-42
2022/12/06 11:17:03;;;;;;;18.27;9.33;;;;;;;;;;5002395;28;20188;-42
2022/12/06 11:19:33;;;;;;;11.80;8.40;;;;;;;;;;5001072;28;20413;-44
2022/12/06 11:22:23;;;;;;;16.00;9.53;;;;;;;;;;4998575;28;20978;-42
2022/12/06 11:24:56;;;;;;;29.63;9.98;;;;;;;;;;5003018;28;20423;-42
2022/12/06 11:27:30;;;;;;;16.93;9.90;;;;;;;;;;5003622;28;20626;-42
2022/12/06 11:29:56;;;;;;;10.73;9.13;;;;;;;;;;5001091;28;20456;-42
2022/12/06 11:32:22;;;;;;;12.40;8.87;;;;;;;;;;5001056;28;20404;-42
2022/12/06 11:34:50;;;;;;;12.13;8.40;;;;;;;;;;4996584;28;20793;-43
2022/12/06 11:37:21;;;;;;;13.98;10.00;;;;;;;;;;5003969;28;20949;-42
2022/12/06 11:39:52;;;;;;;32.63;9.77;;;;;;;;;;5001237;28;20668;-42
2022/12/06 11:42:21;;;;;;;11.00;9.00;;;;;;;;;;5002205;28;20413;-44
2022/12/06 11:44:49;;;;;;;9.90;7.23;;;;;;;;;;5001869;28;20951;-42
2022/12/06 11:47:18;;;;;;;12.77;9.77;;;;;;;;;;4996994;28;20455;-44
2022/12/06 11:49:45;;;;;;;14.60;8.37;;;;;;;;;;4998950;28;20547;-41
2022/12/06 11:52:43;;;;;;;12.23;8.33;;;;;;;;;;5000774;28;20420;-41
2022/12/06 11:55:15;;;;;;;8.70;7.20;;;;;;;;;;4999221;28;20420;-42
2022/12/06 11:57:44;;;;;;;9.50;7.50;;;;;;;;;;5019171;28;20481;-42
2022/12/06 12:00:13;;;;;;;9.23;7.10;;;;;;;;;;4988184;28;20958;-44
2022/12/06 12:02:40;;;;;;;10.37;7.33;;;;;;;;;;4991545;28;20412;-42
2022/12/06 12:05:25;;;;;;;8.33;7.10;;;;;;;;;;5003165;28;20475;-42
2022/12/06 12:07:55;;;;;;;9.50;7.10;;;;;;;;;;4998654;28;20520;-43
2022/12/06 12:10:27;;;;;;;11.13;7.57;;;;;;;;;;4989075;28;20871;-42
2022/12/06 12:15:40;;;;;;;8.80;6.90;;;;;;;;;;4990855;28;20416;-43
2022/12/06 12:18:06;;;;;;;13.97;7.67;;;;;;;;;;4991572;28;20432;-42
2022/12/06 12:20:39;;;;;;;12.33;7.60;;;;;;;;;;4985734;28;20426;-42
2022/12/06 12:23:17;;;;;;;9.20;7.57;;;;;;;;;;4987641;28;20408;-44
2022/12/06 12:25:42;;;;;;;10.48;7.45;;;;;;;;;;4993683;28;20911;-42
2022/12/06 12:28:29;;;;;;;11.80;7.80;;;;;;;;;;5003162;28;20250;-41
2022/12/06 12:30:56;;;;;;;11.40;6.53;;;;;;;;;;4996111;28;20499;-42
2022/12/06 12:33:23;;;;;;;14.73;7.90;;;;;;;;;;5008400;28;20219;-41
2022/12/06 12:35:53;;;;;;;10.18;7.60;;;;;;;;;;5000985;28;20181;-42
2022/12/06 12:38:25;;;;;;;17.55;12.32;;;;;;;;;;5003022;28;20189;-42
2022/12/06 12:40:53;;;;;;;17.10;12.13;;;;;;;;;;5002178;28;20185;-42
2022/12/06 12:43:21;;;;;;;12.50;9.02;;;;;;;;;;5000223;28;20204;-41
2022/12/06 12:46:02;;;;;;;16.60;8.50;;;;;;;;;;4998881;28;20185;-42
2022/12/06 12:48:28;;;;;;;7.63;6.80;;;;;;;;;;4986830;28;20209;-43
2022/12/06 12:50:55;;;;;;;12.10;9.03;;;;;;;;;;5005420;28;20463;-43
2022/12/06 12:53:30;;;;;;;13.80;10.10;;;;;;;;;;5002129;28;20446;-42
2022/12/06 12:56:09;;;;;;;13.95;9.35;;;;;;;;;;4997692;28;20680;-45
2022/12/06 12:58:35;;;;;;;11.70;9.45;;;;;;;;;;5001545;28;20176;-42
2022/12/06 13:01:03;;;;;;;12.40;9.43;;;;;;;;;;4994504;28;20557;-41
2022/12/06 13:03:29;;;;;;;10.70;8.52;;;;;;;;;;5003433;28;20409;-42
2022/12/06 13:05:56;;;;;;;10.75;8.40;;;;;;;;;;5005575;28;20192;-42
2022/12/06 13:08:25;;;;;;;12.63;8.82;;;;;;;;;;4999926;28;20201;-41
2022/12/06 13:10:54;;;;;;;12.15;8.75;;;;;;;;;;5002132;28;20588;-42
2022/12/06 13:13:24;;;;;;;13.52;9.25;;;;;;;;;;4998924;28;20180;-42
2022/12/06 13:15:52;;;;;;;12.95;9.10;;;;;;;;;;5000992;28;20181;-42
2022/12/06 13:18:36;;;;;;;9.90;8.07;;;;;;;;;;5003004;28;20584;-42
2022/12/06 13:21:05;;;;;;;11.65;8.10;;;;;;;;;;4993328;28;20218;-42
2022/12/06 13:23:33;;;;;;;9.20;7.40;;;;;;;;;;4998337;28;20184;-42
2022/12/06 13:26:02;;;;;;;9.82;8.02;;;;;;;;;;5006225;28;20177;-42
2022/12/06 13:28:31;;;;;;;8.43;6.87;;;;;;;;;;4999447;28;20405;-41
2022/12/06 13:31:01;;;;;;;12.37;7.77;;;;;;;;;;5006145;28;20451;-41
2022/12/06 13:33:29;;;;;;;11.10;7.43;;;;;;;;;;4999987;28;20397;-42
2022/12/06 13:35:58;;;;;;;9.50;6.87;;;;;;;;;;5003699;28;20404;-41
2022/12/06 13:38:32;;;;;;;8.10;6.80;;;;;;;;;;5003960;28;20438;-41
2022/12/06 13:40:59;;;;;;;14.30;7.23;;;;;;;;;;4999385;28;20418;-41
2022/12/06 13:43:25;;;;;;;13.53;7.80;;;;;;;;;;5007003;28;20457;-41
2022/12/06 13:45:54;;;;;;;7.80;6.93;;;;;;;;;;4998256;28;20415;-41
2022/12/06 13:48:35;;;;;;;10.75;8.27;;;;;;;;;;5004473;28;20224;-42
2022/12/06 13:51:03;;;;;;;11.18;8.50;;;;;;;;;;4989945;28;20189;-41
2022/12/06 13:53:32;;;;;;;8.63;7.45;;;;;;;;;;5003138;28;20261;-41
2022/12/06 13:56:01;;;;;;;11.05;7.03;;;;;;;;;;4999330;28;20208;-44
2022/12/06 13:58:27;;;;;;;10.13;7.18;;;;;;;;;;5007222;28;20192;-41
2022/12/06 14:00:55;;;;;;;9.00;6.83;;;;;;;;;;5003961;28;20606;-42
2022/12/06 14:03:22;;;;;;;10.00;7.57;;;;;;;;;;5006269;28;20407;-43
2022/12/06 14:06:08;;;;;;;7.60;6.30;;;;;;;;;;4999037;28;20192;-41
2022/12/06 14:08:41;;;;;;;9.93;6.88;;;;;;;;;;4999465;28;20212;-41
2022/12/06 14:11:16;;;;;;;10.05;9.13;;;;;;;;;;4990726;28;20196;-42
2022/12/06 14:14:07;;;;;;;10.30;6.78;;;;;;;;;;5003595;28;20168;-41
2022/12/06 14:16:41;;;;;;;8.32;6.57;;;;;;;;;;5002313;28;20213;-42
2022/12/06 14:19:16;;;;;;;10.60;6.65;;;;;;;;;;4995496;28;20187;-42
2022/12/06 14:21:43;;;;;;;8.05;6.70;;;;;;;;;;5004503;28;20554;-41
2022/12/06 14:24:30;;;;;;;8.55;6.40;;;;;;;;;;5002575;28;20260;-40
2022/12/06 14:27:16;;;;;;;9.77;6.95;;;;;;;;;;5004710;28;20207;-42
2022/12/06 14:29:42;;;;;;;10.45;6.60;;;;;;;;;;5003252;28;20219;-41
2022/12/06 14:32:10;;;;;;;7.95;6.57;;;;;;;;;;5003689;28;20255;-41
2022/12/06 14:34:37;;;;;;;8.93;6.97;;;;;;;;;;5005201;28;20200;-42
2022/12/06 14:37:11;;;;;;;8.63;5.32;;;;;;;;;;4998917;28;20200;-41
2022/12/06 14:39:37;;;;;;;7.47;6.53;;;;;;;;;;5005248;28;20251;-42
2022/12/06 14:44:59;;;;;;;7.05;6.00;;;;;;;;;;5002183;28;20414;-41
2022/12/06 14:47:29;;;;;;;7.13;5.53;;;;;;;;;;5001725;28;20678;-41
2022/12/06 14:53:02;;;;;;;13.90;6.65;;;;;;;;;;5002953;28;20231;-41
2022/12/06 14:55:29;;;;;;;8.55;6.10;;;;;;;;;;5001568;28;20184;-42
2022/12/06 14:57:57;;;;;;;9.98;6.85;;;;;;;;;;5004275;28;20203;-41
2022/12/06 15:00:25;;;;;;;12.50;6.57;;;;;;;;;;5002928;28;20258;-41
2022/12/06 15:03:21;;;;;;;7.97;5.93;;;;;;;;;;5004641;28;20180;-41